22FA weather

Hidden River Airport
Sarasota, Florida, United States

Public forecast

Using degrees Fahrenheit for public forecast. Weather courtesy of forecast.io.

Closest aviation weather report (METAR) to Hidden River Airport

Closest report is Sarasota Bradenton International Airport, 16.0 nm (29.7 km) WNW. Retrieved 2019/12/15 17:53 UTC (13 minutes ago):

KSRQ 151753Z 09010KT 10SM CLR 24/08 A3010 RMK AO2 SLP191 T02440078 10244 20106 58019

Closest aviation forecast (TAF) to Hidden River Airport

Closest forecast is Sarasota Bradenton International Airport, 16.0 nm (29.7 km) WNW. Retrieved 2019/12/15 18:40 UTC (0 seconds ago):

TAF KSRQ 151737Z 1518/1618 10009KT P6SM SKC FM151900 16008KT P6SM SKC FM160100 11006KT P6SM FEW250 FM161500 15011KT P6SM FEW030 SCT250